createdAt,value
2022-12-13T00:01:28.831Z,-9.20
2022-12-13T00:03:56.128Z,-9.50
2022-12-13T00:06:24.313Z,-9.50
2022-12-13T00:08:50.960Z,-9.70
2022-12-13T00:11:18.356Z,-9.70
2022-12-13T00:13:46.980Z,-9.60
2022-12-13T00:16:15.025Z,-9.20
2022-12-13T00:18:41.905Z,-8.80
2022-12-13T00:21:12.740Z,-9.10
2022-12-13T00:23:39.542Z,-9.20
2022-12-13T00:26:07.564Z,-9.30
2022-12-13T00:28:34.162Z,-9.50
2022-12-13T00:31:18.958Z,-9.70
2022-12-13T00:33:49.047Z,-9.70
2022-12-13T00:36:16.038Z,-9.80
2022-12-13T00:38:42.684Z,-9.50
2022-12-13T00:41:12.298Z,-9.20
2022-12-13T00:43:38.976Z,-9.00
2022-12-13T00:46:07.164Z,-8.90
2022-12-13T00:48:33.775Z,-8.80
2022-12-13T00:51:00.637Z,-8.80
2022-12-13T00:53:27.247Z,-8.60
2022-12-13T00:55:54.047Z,-8.80
2022-12-13T00:58:20.632Z,-8.90
2022-12-13T01:00:48.097Z,-9.00
2022-12-13T01:03:20.662Z,-8.80
2022-12-13T01:06:14.265Z,-8.60
2022-12-13T01:08:34.474Z,-8.60
2022-12-13T01:11:01.085Z,-9.00
2022-12-13T01:13:27.696Z,-9.10
2022-12-13T01:15:54.308Z,-8.60
2022-12-13T01:18:20.915Z,-8.50
2022-12-13T01:20:58.418Z,-8.40
2022-12-13T01:23:25.456Z,-8.30
2022-12-13T01:25:52.488Z,-8.50
2022-12-13T01:28:19.557Z,-8.70
2022-12-13T01:30:54.143Z,-9.50
2022-12-13T01:33:20.963Z,-9.50
2022-12-13T01:35:47.561Z,-9.00
2022-12-13T01:38:16.078Z,-8.90
2022-12-13T01:40:44.810Z,-8.50
2022-12-13T01:43:14.555Z,-9.30
2022-12-13T01:45:42.332Z,-9.20
2022-12-13T01:48:14.488Z,-8.70
2022-12-13T01:50:43.814Z,-8.50
2022-12-13T01:53:13.359Z,-8.40
2022-12-13T01:55:41.702Z,-9.50
2022-12-13T01:58:08.933Z,-9.90
2022-12-13T02:00:35.962Z,-9.30
2022-12-13T02:03:03.097Z,-8.90
2022-12-13T02:05:38.632Z,-9.10
2022-12-13T02:08:05.795Z,-9.70
2022-12-13T02:10:32.453Z,-10.10
2022-12-13T02:12:59.237Z,-10.20
2022-12-13T02:15:28.222Z,-9.90
2022-12-13T02:18:00.670Z,-9.60
2022-12-13T02:20:36.618Z,-9.70
2022-12-13T02:23:38.776Z,-10.20
2022-12-13T02:26:23.608Z,-10.10
2022-12-13T02:28:56.110Z,-9.70
2022-12-13T02:31:37.068Z,-9.80
2022-12-13T02:34:03.706Z,-10.10
2022-12-13T02:36:38.074Z,-10.10
2022-12-13T02:39:15.057Z,-10.20
2022-12-13T02:41:49.122Z,-10.50
2022-12-13T02:44:22.166Z,-10.40
2022-12-13T02:46:57.926Z,-10.60
2022-12-13T02:49:26.801Z,-10.40
2022-12-13T02:51:54.240Z,-10.20
2022-12-13T02:54:20.935Z,-9.90
2022-12-13T02:56:57.378Z,-9.40
2022-12-13T02:59:26.752Z,-9.90
2022-12-13T03:02:10.451Z,-10.20
2022-12-13T03:05:09.848Z,-10.40
2022-12-13T03:07:44.854Z,-10.50
2022-12-13T03:10:15.324Z,-10.80
2022-12-13T03:13:08.083Z,-10.80
2022-12-13T03:15:41.807Z,-10.80
2022-12-13T03:18:16.437Z,-10.00
2022-12-13T03:20:56.720Z,-10.40
2022-12-13T03:23:23.889Z,-10.70
2022-12-13T03:25:55.445Z,-10.80
2022-12-13T03:28:22.203Z,-10.50
2022-12-13T03:30:48.912Z,-10.10
2022-12-13T03:33:15.619Z,-10.10
2022-12-13T03:35:44.938Z,-10.00
2022-12-13T03:38:21.943Z,-10.30
2022-12-13T03:40:57.457Z,-10.10
2022-12-13T03:43:24.524Z,-9.90
2022-12-13T03:45:51.786Z,-9.60
2022-12-13T03:48:22.115Z,-9.40
2022-12-13T03:50:50.567Z,-9.50
2022-12-13T03:53:23.266Z,-9.60
2022-12-13T03:56:00.862Z,-9.60
2022-12-13T03:58:36.451Z,-9.50
2022-12-13T04:01:07.484Z,-9.80
2022-12-13T04:03:34.339Z,-10.30
2022-12-13T04:06:00.984Z,-10.60
2022-12-13T04:08:27.601Z,-11.00
2022-12-13T04:10:54.239Z,-10.50
2022-12-13T04:13:32.760Z,-10.70
2022-12-13T04:15:59.912Z,-10.50
2022-12-13T04:18:26.539Z,-10.40
2022-12-13T04:20:53.158Z,-10.50
2022-12-13T04:23:19.771Z,-10.10
2022-12-13T04:25:46.394Z,-10.20
2022-12-13T04:28:13.146Z,-10.50
2022-12-13T04:30:53.757Z,-10.80
2022-12-13T04:33:21.754Z,-11.10
2022-12-13T04:35:48.628Z,-10.90
2022-12-13T04:38:15.463Z,-10.60
2022-12-13T04:40:42.079Z,-10.80
2022-12-13T04:43:08.954Z,-10.80
2022-12-13T04:45:35.846Z,-10.80
2022-12-13T04:48:02.518Z,-10.90
2022-12-13T04:50:29.133Z,-10.60
2022-12-13T04:52:55.806Z,-10.50
2022-12-13T04:55:22.414Z,-10.30
2022-12-13T04:57:49.395Z,-10.80
2022-12-13T05:00:16.130Z,-10.40
2022-12-13T05:02:42.767Z,-10.80
2022-12-13T05:05:10.343Z,-11.10
2022-12-13T05:07:42.235Z,-11.30
2022-12-13T05:10:10.130Z,-11.30
2022-12-13T05:12:36.735Z,-11.40
2022-12-13T05:15:03.634Z,-10.90
2022-12-13T05:17:30.399Z,-10.50
2022-12-13T05:19:57.026Z,-11.00
2022-12-13T05:22:23.643Z,-11.20
2022-12-13T05:24:50.252Z,-10.90
2022-12-13T05:27:25.048Z,-10.30
2022-12-13T05:30:02.166Z,-10.20
2022-12-13T05:32:43.733Z,-10.80
2022-12-13T05:35:22.506Z,-11.10
2022-12-13T05:37:54.153Z,-11.30
2022-12-13T05:40:22.562Z,-11.10
2022-12-13T05:42:49.207Z,-11.30
2022-12-13T05:45:17.513Z,-11.40
2022-12-13T05:47:44.473Z,-11.30
2022-12-13T05:50:11.330Z,-11.00
2022-12-13T05:52:38.280Z,-11.30
2022-12-13T05:55:05.063Z,-10.90
2022-12-13T05:57:32.088Z,-10.80
2022-12-13T06:00:00.779Z,-10.90
2022-12-13T06:02:28.159Z,-11.40
2022-12-13T06:04:54.914Z,-11.60
2022-12-13T06:07:21.532Z,-11.20
2022-12-13T06:09:48.203Z,-11.30
2022-12-13T06:12:31.497Z,-11.30
2022-12-13T06:15:00.941Z,-11.60
2022-12-13T06:17:31.898Z,-11.50
2022-12-13T06:20:00.256Z,-11.50
2022-12-13T06:22:27.240Z,-11.00
2022-12-13T06:24:54.092Z,-11.00
2022-12-13T06:27:21.098Z,-11.40
2022-12-13T06:29:47.901Z,-11.40
2022-12-13T06:32:14.543Z,-11.60
2022-12-13T06:34:41.169Z,-11.40
2022-12-13T06:37:08.640Z,-11.20
2022-12-13T06:39:35.505Z,-11.20
2022-12-13T06:42:02.995Z,-11.40
2022-12-13T06:44:29.611Z,-11.00
2022-12-13T06:47:12.076Z,-11.40
2022-12-13T06:49:40.214Z,-11.50
2022-12-13T06:52:08.676Z,-11.50
2022-12-13T06:54:35.380Z,-11.50
2022-12-13T06:57:02.006Z,-11.60
2022-12-13T06:59:28.619Z,-11.10
2022-12-13T07:01:55.322Z,-11.20
2022-12-13T07:04:31.283Z,-11.40
2022-12-13T07:07:01.745Z,-11.40
2022-12-13T07:09:30.354Z,-11.60
2022-12-13T07:11:57.052Z,-11.60
2022-12-13T07:14:23.679Z,-11.70
2022-12-13T07:16:50.277Z,-11.40
2022-12-13T07:19:23.586Z,-11.00
2022-12-13T07:21:51.562Z,-10.80
2022-12-13T07:24:18.230Z,-10.90
2022-12-13T07:26:44.835Z,-11.10
2022-12-13T07:29:11.443Z,-11.10
2022-12-13T07:31:38.172Z,-11.10
2022-12-13T07:34:04.847Z,-11.30
2022-12-13T07:36:31.549Z,-11.00
2022-12-13T07:38:58.567Z,-11.00
2022-12-13T07:41:26.194Z,-10.80
2022-12-13T07:43:55.767Z,-10.20
2022-12-13T07:46:32.717Z,-10.20
2022-12-13T07:49:03.812Z,-9.60
2022-12-13T07:51:30.528Z,-9.20
2022-12-13T07:53:57.532Z,-9.30
2022-12-13T07:56:24.137Z,-9.70
2022-12-13T07:58:51.214Z,-9.50
2022-12-13T08:01:18.521Z,-9.30
2022-12-13T08:03:47.610Z,-9.20
2022-12-13T08:06:14.243Z,-9.10
2022-12-13T08:08:42.072Z,-9.30
2022-12-13T08:11:10.929Z,-9.20
2022-12-13T08:13:38.583Z,-9.00
2022-12-13T08:16:27.183Z,-8.80
2022-12-13T08:18:53.715Z,-8.80
2022-12-13T08:24:20.344Z,-8.30
2022-12-13T08:26:47.152Z,-8.40
2022-12-13T08:29:23.171Z,-8.20
2022-12-13T08:32:01.647Z,-8.50
2022-12-13T08:34:28.626Z,-8.70
2022-12-13T08:37:02.252Z,-8.50
2022-12-13T08:39:36.821Z,-8.90
2022-12-13T08:42:15.460Z,-8.20
2022-12-13T08:44:44.684Z,-8.30
2022-12-13T08:47:11.358Z,-8.10
2022-12-13T08:49:38.151Z,-8.20
2022-12-13T08:52:04.767Z,-8.00
2022-12-13T08:54:32.960Z,-7.80
2022-12-13T08:57:00.711Z,-7.80
2022-12-13T08:59:27.356Z,-7.70
2022-12-13T09:01:55.154Z,-7.90
2022-12-13T09:04:31.733Z,-8.00
2022-12-13T09:07:01.800Z,-7.60
2022-12-13T09:09:29.091Z,-7.70
2022-12-13T09:11:59.421Z,-7.60
2022-12-13T09:14:34.199Z,-7.30
2022-12-13T09:17:02.795Z,-7.00
2022-12-13T09:19:36.724Z,-7.50
2022-12-13T09:22:04.619Z,-8.00
2022-12-13T09:24:36.760Z,-7.30
2022-12-13T09:27:09.205Z,-7.70
2022-12-13T09:29:37.158Z,-7.40
2022-12-13T09:32:03.968Z,-7.40
2022-12-13T09:34:30.744Z,-7.40
2022-12-13T09:37:01.101Z,-7.30
2022-12-13T09:39:29.034Z,-7.50
2022-12-13T09:42:00.787Z,-7.80
2022-12-13T09:44:42.721Z,-7.70
2022-12-13T09:47:23.237Z,-7.30
2022-12-13T09:49:53.825Z,-7.00
2022-12-13T09:52:22.600Z,-7.40
2022-12-13T09:54:52.600Z,-7.50
2022-12-13T09:57:32.992Z,-7.50
2022-12-13T10:00:07.011Z,-7.20
2022-12-13T10:02:42.096Z,-7.00
2022-12-13T10:05:21.897Z,-7.10
2022-12-13T10:07:50.293Z,-7.10
2022-12-13T10:10:17.593Z,-7.00
2022-12-13T10:12:46.162Z,-7.00
2022-12-13T10:15:22.023Z,-7.00
2022-12-13T10:17:55.351Z,-7.10
2022-12-13T10:20:25.853Z,-7.00
2022-12-13T10:23:30.170Z,-6.80
2022-12-13T10:25:44.600Z,-6.50
2022-12-13T10:28:11.305Z,-6.30
2022-12-13T10:30:42.432Z,-6.00
2022-12-13T10:33:24.897Z,-5.60
2022-12-13T10:36:10.575Z,-5.30
2022-12-13T10:38:38.840Z,-5.10
2022-12-13T10:41:25.268Z,-5.00
2022-12-13T10:44:06.953Z,-5.50
2022-12-13T10:46:38.533Z,-5.20
2022-12-13T10:49:16.097Z,-5.30
2022-12-13T10:51:43.043Z,-5.00
2022-12-13T10:54:38.913Z,-4.80
2022-12-13T10:57:15.089Z,-4.70
2022-12-13T10:59:41.907Z,-5.00
2022-12-13T11:02:27.821Z,-5.10
2022-12-13T11:04:54.914Z,-4.70
2022-12-13T11:07:27.439Z,-4.60
2022-12-13T11:09:54.078Z,-4.90
2022-12-13T11:12:22.135Z,-4.80
2022-12-13T11:14:54.900Z,-4.90
2022-12-13T11:17:22.756Z,-5.10
2022-12-13T11:19:51.828Z,-5.40
2022-12-13T11:22:21.507Z,-5.30
2022-12-13T11:24:52.667Z,-5.00
2022-12-13T11:27:38.145Z,-5.00
2022-12-13T11:30:13.229Z,-5.10
2022-12-13T11:32:54.680Z,-4.80
2022-12-13T11:35:27.511Z,-4.70
2022-12-13T11:37:54.518Z,-4.60
2022-12-13T11:40:26.838Z,-4.30
2022-12-13T11:42:56.654Z,-4.20
2022-12-13T11:45:31.806Z,-4.10
2022-12-13T11:47:58.687Z,-5.10
2022-12-13T11:50:33.405Z,-5.10
2022-12-13T11:53:10.552Z,-4.60
2022-12-13T11:55:44.030Z,-4.70
2022-12-13T11:58:16.464Z,-4.60
2022-12-13T12:00:50.603Z,-4.60
2022-12-13T12:03:21.836Z,-4.70
2022-12-13T12:05:55.862Z,-4.60
2022-12-13T12:08:32.284Z,-4.60
2022-12-13T12:11:17.250Z,-4.60
2022-12-13T12:13:51.237Z,-4.70
2022-12-13T12:16:37.390Z,-5.10
2022-12-13T12:19:09.495Z,-5.10
2022-12-13T12:22:12.333Z,-4.50
2022-12-13T12:24:29.907Z,-4.50
2022-12-13T12:26:59.669Z,-4.60
2022-12-13T12:29:44.589Z,-4.30
2022-12-13T12:32:20.760Z,-4.40
2022-12-13T12:34:55.929Z,-4.60
2022-12-13T12:37:32.119Z,-4.50
2022-12-13T12:39:58.847Z,-4.60
2022-12-13T12:43:03.784Z,-4.60
2022-12-13T12:45:55.827Z,-4.50
2022-12-13T12:51:34.193Z,-4.80
2022-12-13T12:54:13.100Z,-4.40
2022-12-13T12:56:47.555Z,-4.70
2022-12-13T12:59:14.166Z,-4.20
2022-12-13T13:02:04.295Z,-4.70
2022-12-13T13:04:39.126Z,-5.00
2022-12-13T13:07:22.633Z,-5.00
2022-12-13T13:09:51.511Z,-4.90
2022-12-13T13:12:30.139Z,-4.70
2022-12-13T13:14:57.681Z,-4.70
2022-12-13T13:17:24.313Z,-4.30
2022-12-13T13:20:12.219Z,-4.10
2022-12-13T13:22:42.795Z,-4.30
2022-12-13T13:25:25.973Z,-4.90
2022-12-13T13:28:01.019Z,-4.50
2022-12-13T13:30:28.217Z,-4.10
2022-12-13T13:32:55.605Z,-4.70
2022-12-13T13:35:36.919Z,-5.10
2022-12-13T13:38:24.245Z,-5.10
2022-12-13T13:40:51.261Z,-5.10
2022-12-13T13:43:32.206Z,-5.00
2022-12-13T13:46:08.004Z,-4.80
2022-12-13T13:49:01.102Z,-4.40
2022-12-13T13:52:16.866Z,-4.90
2022-12-13T13:54:46.099Z,-4.80
2022-12-13T13:57:33.223Z,-4.80
2022-12-13T14:00:15.065Z,-4.80
2022-12-13T14:03:01.028Z,-5.00
2022-12-13T14:05:49.573Z,-5.20
2022-12-13T14:08:35.049Z,-5.10
2022-12-13T14:11:17.480Z,-5.00
2022-12-13T14:13:47.192Z,-4.50
2022-12-13T14:16:28.872Z,-4.80
2022-12-13T14:19:18.694Z,-4.60
2022-12-13T14:21:54.536Z,-5.20
2022-12-13T14:24:27.359Z,-5.20
2022-12-13T14:26:54.238Z,-5.10
2022-12-13T14:29:34.720Z,-5.00
2022-12-13T14:32:01.854Z,-5.00
2022-12-13T14:34:30.665Z,-5.00
2022-12-13T14:37:01.592Z,-4.70
2022-12-13T14:39:32.138Z,-5.10
2022-12-13T14:41:59.716Z,-5.50
2022-12-13T14:44:30.325Z,-5.40
2022-12-13T14:47:07.310Z,-5.60
2022-12-13T14:49:36.065Z,-5.70
2022-12-13T14:52:07.220Z,-5.50
2022-12-13T14:54:49.245Z,-5.10
2022-12-13T14:57:18.164Z,-5.40
2022-12-13T14:59:50.235Z,-5.60
2022-12-13T15:02:30.672Z,-5.50
2022-12-13T15:05:02.613Z,-5.70
2022-12-13T15:07:35.782Z,-5.80
2022-12-13T15:10:16.129Z,-5.60
2022-12-13T15:12:43.857Z,-5.80
2022-12-13T15:15:25.672Z,-5.90
2022-12-13T15:18:04.520Z,-5.60
2022-12-13T15:20:32.030Z,-5.90
2022-12-13T15:23:22.637Z,-5.80
2022-12-13T15:26:00.040Z,-6.00
2022-12-13T15:28:29.230Z,-6.10
2022-12-13T15:30:57.904Z,-6.30
2022-12-13T15:33:32.704Z,-6.30
2022-12-13T15:36:01.949Z,-6.20
2022-12-13T15:38:29.493Z,-6.10
2022-12-13T15:40:56.647Z,-6.20
2022-12-13T15:43:29.560Z,-6.30
2022-12-13T15:45:56.262Z,-6.20
2022-12-13T15:48:22.944Z,-6.20
2022-12-13T15:50:49.633Z,-6.20
2022-12-13T15:53:25.025Z,-6.30
2022-12-13T15:55:52.122Z,-6.40
2022-12-13T15:58:26.205Z,-6.40
2022-12-13T16:00:53.044Z,-6.40
2022-12-13T16:03:20.688Z,-6.50
2022-12-13T16:05:49.177Z,-6.50
2022-12-13T16:08:32.659Z,-6.40
2022-12-13T16:10:59.890Z,-6.30
2022-12-13T16:13:31.420Z,-6.10
2022-12-13T16:15:59.791Z,-6.10
2022-12-13T16:18:45.259Z,-6.30
2022-12-13T16:21:11.958Z,-6.40
2022-12-13T16:23:38.714Z,-6.40
2022-12-13T16:26:09.025Z,-6.10
2022-12-13T16:28:36.136Z,-6.10
2022-12-13T16:31:12.020Z,-6.00
2022-12-13T16:33:38.774Z,-5.90
2022-12-13T16:36:05.508Z,-6.00
2022-12-13T16:38:33.196Z,-6.10
2022-12-13T16:41:00.599Z,-5.80
2022-12-13T16:43:37.478Z,-5.90
2022-12-13T16:47:11.830Z,-5.60
2022-12-13T16:48:52.398Z,-5.70
2022-12-13T16:51:19.478Z,-5.90
2022-12-13T16:53:46.180Z,-6.40
2022-12-13T16:56:16.214Z,-6.30
2022-12-13T16:58:49.395Z,-5.90
2022-12-13T17:01:19.475Z,-5.80
2022-12-13T17:03:46.227Z,-5.90
2022-12-13T17:06:14.261Z,-6.10
2022-12-13T17:08:41.155Z,-6.00
2022-12-13T17:11:14.587Z,-6.30
2022-12-13T17:13:44.604Z,-6.00
2022-12-13T17:16:11.389Z,-6.10
2022-12-13T17:18:38.112Z,-5.90
2022-12-13T17:21:08.464Z,-6.00
2022-12-13T17:23:35.210Z,-6.10
2022-12-13T17:26:08.578Z,-6.20
2022-12-13T17:28:35.276Z,-6.40
2022-12-13T17:31:06.617Z,-6.30
2022-12-13T17:33:33.484Z,-6.20
2022-12-13T17:36:04.005Z,-6.50
2022-12-13T17:38:30.727Z,-5.80
2022-12-13T17:40:57.555Z,-6.20
2022-12-13T17:43:34.414Z,-6.40
2022-12-13T17:46:06.075Z,-6.20
2022-12-13T17:48:39.830Z,-6.30
2022-12-13T17:51:08.509Z,-6.40
2022-12-13T17:53:35.942Z,-6.20
2022-12-13T17:56:04.395Z,-6.20
2022-12-13T17:58:32.204Z,-6.50
2022-12-13T18:00:59.673Z,-6.50
2022-12-13T18:03:26.755Z,-6.20
2022-12-13T18:05:57.893Z,-5.90
2022-12-13T18:08:25.054Z,-6.20
2022-12-13T18:11:30.785Z,-6.00
2022-12-13T18:13:45.445Z,-6.00
2022-12-13T18:16:13.688Z,-6.00
2022-12-13T18:18:40.753Z,-6.00
2022-12-13T18:21:12.286Z,-6.20
2022-12-13T18:23:39.145Z,-5.90
2022-12-13T18:26:07.839Z,-5.70
2022-12-13T18:28:35.328Z,-5.90
2022-12-13T18:31:03.417Z,-5.60
2022-12-13T18:33:31.778Z,-6.00
2022-12-13T18:35:58.536Z,-6.00
2022-12-13T18:38:30.409Z,-6.30
2022-12-13T18:41:12.498Z,-6.20
2022-12-13T18:43:39.177Z,-6.50
2022-12-13T18:46:05.858Z,-6.40
2022-12-13T18:48:33.027Z,-6.20
2022-12-13T18:51:04.198Z,-5.80
2022-12-13T18:53:31.907Z,-5.80
2022-12-13T18:56:02.656Z,-5.90
2022-12-13T18:58:29.319Z,-6.00
2022-12-13T19:00:57.243Z,-5.90
2022-12-13T19:03:25.237Z,-6.30
2022-12-13T19:05:52.335Z,-6.20
2022-12-13T19:08:18.947Z,-6.00
2022-12-13T19:10:45.954Z,-6.10
2022-12-13T19:13:12.719Z,-6.40
2022-12-13T19:15:40.374Z,-6.40
2022-12-13T19:18:07.101Z,-6.10
2022-12-13T19:20:33.835Z,-6.20
2022-12-13T19:23:00.445Z,-6.30
2022-12-13T19:25:27.042Z,-6.50
2022-12-13T19:27:56.669Z,-6.50
2022-12-13T19:30:23.734Z,-6.50
2022-12-13T19:32:51.170Z,-6.40
2022-12-13T19:35:19.376Z,-6.00
2022-12-13T19:37:46.005Z,-6.60
2022-12-13T19:40:12.682Z,-6.40
2022-12-13T19:42:39.387Z,-6.50
2022-12-13T19:45:06.292Z,-6.70
2022-12-13T19:47:33.084Z,-6.80
2022-12-13T19:49:59.802Z,-6.70
2022-12-13T19:52:26.518Z,-6.70
2022-12-13T19:54:53.629Z,-6.40
2022-12-13T19:57:20.246Z,-6.30
2022-12-13T19:59:46.896Z,-6.60
2022-12-13T20:02:14.241Z,-6.70
2022-12-13T20:04:43.576Z,-6.80
2022-12-13T20:07:10.745Z,-6.60
2022-12-13T20:09:39.125Z,-6.50
2022-12-13T20:12:05.990Z,-6.40
2022-12-13T20:14:32.628Z,-6.50
2022-12-13T20:16:59.231Z,-6.40
2022-12-13T20:19:25.848Z,-6.10
2022-12-13T20:21:56.921Z,-6.40
2022-12-13T20:24:23.826Z,-6.40
2022-12-13T20:26:50.550Z,-6.30
2022-12-13T20:29:18.536Z,-6.20
2022-12-13T20:31:48.540Z,-6.30
2022-12-13T20:34:15.983Z,-6.40
2022-12-13T20:36:42.644Z,-6.50
2022-12-13T20:39:10.674Z,-6.50
2022-12-13T20:41:37.364Z,-6.50
2022-12-13T20:44:05.236Z,-6.50
2022-12-13T20:46:32.031Z,-6.20
2022-12-13T20:49:00.559Z,-6.00
2022-12-13T20:51:28.554Z,-6.30
2022-12-13T20:53:55.758Z,-6.30
2022-12-13T20:56:24.297Z,-6.40
2022-12-13T20:58:51.047Z,-6.30
2022-12-13T21:01:19.296Z,-6.10
2022-12-13T21:03:46.531Z,-6.00
2022-12-13T21:06:13.484Z,-5.80
2022-12-13T21:08:52.800Z,-5.20
2022-12-13T21:11:26.840Z,-5.50
2022-12-13T21:14:01.209Z,-5.60
2022-12-13T21:16:52.495Z,-5.90
2022-12-13T21:19:21.521Z,-6.30
2022-12-13T21:21:49.424Z,-5.90
2022-12-13T21:24:16.712Z,-6.30
2022-12-13T21:26:43.873Z,-6.10
2022-12-13T21:29:12.550Z,-6.10
2022-12-13T21:31:40.418Z,-6.10
2022-12-13T21:34:07.504Z,-5.90
2022-12-13T21:36:35.758Z,-6.30
2022-12-13T21:39:04.593Z,-6.30
2022-12-13T21:41:31.649Z,-5.90
2022-12-13T21:44:00.397Z,-6.00
2022-12-13T21:46:41.391Z,-6.00
2022-12-13T21:49:14.883Z,-5.70
2022-12-13T21:51:47.352Z,-6.00
2022-12-13T21:54:14.759Z,-6.20
2022-12-13T21:57:00.204Z,-6.30
2022-12-13T21:59:27.367Z,-6.10
2022-12-13T22:02:15.905Z,-6.20
2022-12-13T22:04:49.072Z,-6.10
2022-12-13T22:07:16.984Z,-6.10
2022-12-13T22:09:44.391Z,-6.30
2022-12-13T22:12:31.285Z,-6.20
2022-12-13T22:14:57.923Z,-6.10
2022-12-13T22:17:29.731Z,-6.00
2022-12-13T22:19:59.600Z,-6.40
2022-12-13T22:22:26.544Z,-6.00
2022-12-13T22:24:54.016Z,-5.90
2022-12-13T22:27:24.086Z,-5.80
2022-12-13T22:29:58.430Z,-5.80
2022-12-13T22:32:26.866Z,-5.80
2022-12-13T22:34:53.551Z,-5.40
2022-12-13T22:37:20.171Z,-5.60
2022-12-13T22:39:46.825Z,-5.60
2022-12-13T22:42:13.450Z,-5.80
2022-12-13T22:44:40.075Z,-5.40
2022-12-13T22:47:06.930Z,-5.40
2022-12-13T22:49:33.549Z,-5.20
2022-12-13T22:52:00.168Z,-5.40
2022-12-13T22:54:26.778Z,-5.80
2022-12-13T22:56:53.489Z,-5.60
2022-12-13T22:59:20.108Z,-5.70
2022-12-13T23:01:47.252Z,-5.40
2022-12-13T23:04:14.663Z,-5.40
2022-12-13T23:06:41.606Z,-5.00
2022-12-13T23:09:10.597Z,-5.10
2022-12-13T23:11:55.989Z,-5.10
2022-12-13T23:14:30.006Z,-5.20
2022-12-13T23:16:56.907Z,-5.10
2022-12-13T23:22:10.434Z,-5.30
2022-12-13T23:24:37.131Z,-5.70
2022-12-13T23:27:03.795Z,-5.60
2022-12-13T23:29:30.624Z,-5.80
2022-12-13T23:31:57.229Z,-5.70
2022-12-13T23:34:23.915Z,-5.40
2022-12-13T23:36:50.587Z,-5.60
2022-12-13T23:39:17.216Z,-5.20
2022-12-13T23:41:43.826Z,-5.10
2022-12-13T23:44:10.506Z,-4.70
2022-12-13T23:46:37.478Z,-5.60
2022-12-13T23:49:04.819Z,-5.30
2022-12-13T23:51:31.918Z,-5.30
2022-12-13T23:53:59.043Z,-5.30
2022-12-13T23:56:25.675Z,-5.40
2022-12-13T23:58:52.293Z,-5.50
